Time;durP1;ratioP1;P1;durP2;ratioP2;P2;SDS_P1;SDS_P2;PMS_P1;PMS_P2;Temp;Humidity;BMP_temperature;BMP_pressure;BME280_temperature;BME280_humidity;BME280_pressure;Samples;Min_cycle;Max_cycle;Signal;HPM_P1;HPM_P2
2023/05/29 00:00:48;;;;;;;9.13;1.58;;;;;;;;;;5061762;28;20141;-62
2023/05/29 00:03:17;;;;;;;3.80;1.48;;;;;;;;;;5061770;28;20061;-64
2023/05/29 00:05:46;;;;;;;4.40;1.80;;;;;;;;;;5064003;28;20052;-67
2023/05/29 00:08:16;;;;;;;4.30;1.98;;;;;;;;;;5061392;28;20048;-70
2023/05/29 00:10:44;;;;;;;2.60;1.00;;;;;;;;;;5062116;28;20542;-63
2023/05/29 00:13:13;;;;;;;3.33;1.67;;;;;;;;;;5062426;28;20262;-61
2023/05/29 00:15:41;;;;;;;6.55;1.83;;;;;;;;;;5064531;28;20051;-65
2023/05/29 00:18:10;;;;;;;4.03;1.73;;;;;;;;;;5063706;28;20076;-62
2023/05/29 00:20:38;;;;;;;3.95;1.85;;;;;;;;;;5063567;28;20157;-70
2023/05/29 00:23:07;;;;;;;4.72;1.95;;;;;;;;;;5061475;28;20448;-62
2023/05/29 00:25:37;;;;;;;3.70;1.88;;;;;;;;;;5064662;28;20055;-68
2023/05/29 00:28:06;;;;;;;4.20;1.40;;;;;;;;;;5067578;28;20095;-61
2023/05/29 00:30:34;;;;;;;9.70;2.28;;;;;;;;;;5062034;28;20049;-63
2023/05/29 00:33:03;;;;;;;9.63;1.67;;;;;;;;;;5063823;28;20480;-62
2023/05/29 00:35:31;;;;;;;3.55;1.83;;;;;;;;;;5064922;28;20106;-62
2023/05/29 00:38:00;;;;;;;4.97;2.08;;;;;;;;;;5063703;28;20040;-63
2023/05/29 00:40:28;;;;;;;7.28;2.15;;;;;;;;;;5067067;28;20226;-65
2023/05/29 00:42:58;;;;;;;4.25;2.10;;;;;;;;;;5066248;28;20086;-63
2023/05/29 00:45:26;;;;;;;2.92;1.63;;;;;;;;;;5060969;28;20459;-61
2023/05/29 00:47:55;;;;;;;3.58;1.48;;;;;;;;;;5064010;28;20052;-69
2023/05/29 00:50:24;;;;;;;2.22;1.45;;;;;;;;;;5064964;28;20480;-69
2023/05/29 00:52:53;;;;;;;3.15;1.63;;;;;;;;;;5063183;28;20041;-62
2023/05/29 00:55:22;;;;;;;2.65;1.38;;;;;;;;;;5062273;28;20052;-66
2023/05/29 00:57:50;;;;;;;5.05;1.85;;;;;;;;;;5062680;28;20492;-62
2023/05/29 01:00:21;;;;;;;3.50;1.95;;;;;;;;;;5066250;28;20060;-62
2023/05/29 01:02:52;;;;;;;4.85;2.13;;;;;;;;;;5071671;22;20048;-63
2023/05/29 01:05:21;;;;;;;2.95;1.85;;;;;;;;;;5052764;28;20118;-60
2023/05/29 01:07:50;;;;;;;4.95;1.60;;;;;;;;;;5054444;28;20051;-62
2023/05/29 01:10:18;;;;;;;3.55;1.63;;;;;;;;;;5054232;28;20061;-59
2023/05/29 01:12:50;;;;;;;5.57;1.83;;;;;;;;;;5054323;28;20041;-58
2023/05/29 01:15:26;;;;;;;2.97;1.42;;;;;;;;;;5054419;28;20091;-60
2023/05/29 01:18:05;;;;;;;4.85;1.98;;;;;;;;;;5053157;28;20498;-59
2023/05/29 01:20:37;;;;;;;4.88;1.80;;;;;;;;;;5053342;28;20106;-60
2023/05/29 01:23:13;;;;;;;10.95;2.00;;;;;;;;;;5054147;28;20111;-61
2023/05/29 01:25:52;;;;;;;10.60;2.28;;;;;;;;;;5053481;28;20471;-58
2023/05/29 01:28:22;;;;;;;1.98;1.25;;;;;;;;;;5053578;28;20049;-58
2023/05/29 01:30:51;;;;;;;3.42;1.83;;;;;;;;;;5053306;28;20045;-59
2023/05/29 01:33:20;;;;;;;4.43;1.65;;;;;;;;;;5042364;28;20174;-58
2023/05/29 01:35:48;;;;;;;4.70;1.45;;;;;;;;;;5031063;28;20057;-59
2023/05/29 01:38:17;;;;;;;5.15;2.28;;;;;;;;;;5020778;28;20124;-62
2023/05/29 01:40:45;;;;;;;6.28;2.22;;;;;;;;;;5025817;28;20037;-60
2023/05/29 01:43:14;;;;;;;4.32;1.75;;;;;;;;;;5021119;28;20556;-61
2023/05/29 01:45:44;;;;;;;6.38;1.90;;;;;;;;;;5022349;28;20132;-58
2023/05/29 01:48:13;;;;;;;3.83;1.20;;;;;;;;;;5022812;28;20064;-60
2023/05/29 01:50:43;;;;;;;3.60;1.35;;;;;;;;;;5022204;28;20540;-65
2023/05/29 01:53:12;;;;;;;3.17;1.63;;;;;;;;;;5019076;28;20045;-63
2023/05/29 01:55:40;;;;;;;7.57;2.50;;;;;;;;;;5018583;28;20495;-60
2023/05/29 01:58:09;;;;;;;3.35;1.33;;;;;;;;;;5022224;28;20144;-59
2023/05/29 02:00:37;;;;;;;8.25;2.58;;;;;;;;;;5015533;28;20631;-58
2023/05/29 02:03:07;;;;;;;6.65;2.15;;;;;;;;;;5020603;28;20041;-58
2023/05/29 02:05:36;;;;;;;5.38;1.83;;;;;;;;;;5012296;28;20049;-59
2023/05/29 02:08:05;;;;;;;3.90;1.58;;;;;;;;;;5016338;28;20142;-60
2023/05/29 02:10:33;;;;;;;5.43;2.17;;;;;;;;;;5021850;28;20080;-61
2023/05/29 02:13:02;;;;;;;4.40;1.70;;;;;;;;;;5020877;28;20085;-58
2023/05/29 02:15:30;;;;;;;5.88;2.03;;;;;;;;;;5018521;28;20521;-58
2023/05/29 02:18:00;;;;;;;4.88;1.60;;;;;;;;;;5017937;28;20478;-63
2023/05/29 02:20:30;;;;;;;7.35;2.45;;;;;;;;;;5018580;28;20445;-60
2023/05/29 02:22:59;;;;;;;2.88;1.40;;;;;;;;;;5020328;28;20049;-59
2023/05/29 02:25:27;;;;;;;6.47;2.30;;;;;;;;;;5021146;28;20073;-59
2023/05/29 02:27:55;;;;;;;7.28;2.03;;;;;;;;;;5021509;28;20562;-59
2023/05/29 02:30:24;;;;;;;4.25;1.77;;;;;;;;;;5018472;28;20045;-64
2023/05/29 02:32:52;;;;;;;3.55;1.65;;;;;;;;;;5019445;28;20073;-60
2023/05/29 02:35:22;;;;;;;6.05;1.92;;;;;;;;;;5018645;28;20069;-60
2023/05/29 02:37:52;;;;;;;5.90;1.85;;;;;;;;;;5021183;28;20053;-63
2023/05/29 02:40:21;;;;;;;6.88;1.92;;;;;;;;;;5019268;28;20073;-61
2023/05/29 02:42:49;;;;;;;6.18;2.03;;;;;;;;;;5017426;28;20541;-64
2023/05/29 02:45:18;;;;;;;5.10;1.58;;;;;;;;;;5020326;28;20073;-59
2023/05/29 02:47:46;;;;;;;6.00;1.80;;;;;;;;;;5018596;28;20491;-59
2023/05/29 02:50:15;;;;;;;4.85;2.10;;;;;;;;;;5019110;28;20056;-59
2023/05/29 02:52:43;;;;;;;5.70;2.40;;;;;;;;;;5021782;28;20111;-62
2023/05/29 02:55:13;;;;;;;3.33;1.80;;;;;;;;;;5018060;28;20049;-63
2023/05/29 02:57:42;;;;;;;2.50;1.58;;;;;;;;;;5015407;28;20048;-61
2023/05/29 03:00:12;;;;;;;6.38;2.42;;;;;;;;;;5020276;28;20049;-59
2023/05/29 03:02:41;;;;;;;8.30;2.08;;;;;;;;;;5021846;28;20449;-61
2023/05/29 03:05:10;;;;;;;5.05;2.20;;;;;;;;;;5017918;28;20045;-59
2023/05/29 03:07:38;;;;;;;3.95;1.67;;;;;;;;;;5017366;28;20177;-60
2023/05/29 03:10:07;;;;;;;5.05;2.05;;;;;;;;;;5018009;28;20045;-63
2023/05/29 03:12:37;;;;;;;5.00;1.67;;;;;;;;;;5021990;28;20077;-61
2023/05/29 03:15:05;;;;;;;3.42;1.77;;;;;;;;;;5019156;28;20422;-61
2023/05/29 03:17:36;;;;;;;7.38;2.45;;;;;;;;;;5018944;28;20085;-62
2023/05/29 03:20:07;;;;;;;6.53;2.13;;;;;;;;;;5019938;28;20455;-61
2023/05/29 03:22:36;;;;;;;10.93;1.73;;;;;;;;;;5018792;28;20049;-62
2023/05/29 03:25:05;;;;;;;7.28;2.42;;;;;;;;;;5024046;28;20512;-60
2023/05/29 03:27:34;;;;;;;3.65;1.88;;;;;;;;;;5017957;28;20053;-60
2023/05/29 03:30:03;;;;;;;3.42;1.95;;;;;;;;;;5019465;28;20045;-59
2023/05/29 03:32:32;;;;;;;3.80;1.45;;;;;;;;;;5014998;28;20761;-63
2023/05/29 03:35:01;;;;;;;6.60;2.45;;;;;;;;;;5020699;28;20151;-61
2023/05/29 03:37:29;;;;;;;6.97;2.28;;;;;;;;;;5019445;28;20486;-59
2023/05/29 03:39:57;;;;;;;9.13;1.77;;;;;;;;;;5018766;28;20049;-65
2023/05/29 03:42:26;;;;;;;6.68;2.20;;;;;;;;;;5017805;28;20457;-62
2023/05/29 03:44:54;;;;;;;5.95;2.10;;;;;;;;;;5022091;28;20053;-63
2023/05/29 03:47:24;;;;;;;3.03;1.90;;;;;;;;;;5026200;28;20050;-59
2023/05/29 03:49:52;;;;;;;5.32;1.73;;;;;;;;;;5022685;28;20431;-58
2023/05/29 03:52:21;;;;;;;4.35;1.58;;;;;;;;;;5022810;28;20621;-59
2023/05/29 03:54:49;;;;;;;5.20;1.88;;;;;;;;;;5022093;28;20044;-61
2023/05/29 03:57:17;;;;;;;8.07;2.00;;;;;;;;;;5024579;28;20073;-58
2023/05/29 03:59:46;;;;;;;7.18;3.25;;;;;;;;;;5022611;28;20134;-60
2023/05/29 04:02:14;;;;;;;4.63;1.90;;;;;;;;;;5020192;28;20448;-60
2023/05/29 04:04:48;;;;;;;1.83;1.50;;;;;;;;;;5020949;28;20069;-66
2023/05/29 04:07:18;;;;;;;3.60;1.73;;;;;;;;;;5022673;28;20049;-59
2023/05/29 04:09:46;;;;;;;4.43;2.03;;;;;;;;;;5024938;28;20049;-60
2023/05/29 04:12:15;;;;;;;5.25;2.00;;;;;;;;;;5022630;28;20546;-60
2023/05/29 04:14:44;;;;;;;7.18;1.63;;;;;;;;;;5021497;28;20060;-61
2023/05/29 04:17:12;;;;;;;2.05;1.38;;;;;;;;;;5022428;28;20099;-65
2023/05/29 04:19:40;;;;;;;6.40;1.58;;;;;;;;;;5023675;28;20132;-59
2023/05/29 04:22:10;;;;;;;2.55;1.25;;;;;;;;;;5022889;28;20053;-58
2023/05/29 04:24:39;;;;;;;2.53;1.55;;;;;;;;;;5022252;28;20137;-61
2023/05/29 04:27:08;;;;;;;3.58;1.70;;;;;;;;;;5022409;28;20156;-60
2023/05/29 04:29:40;;;;;;;4.72;1.85;;;;;;;;;;5020455;28;20100;-60
2023/05/29 04:32:09;;;;;;;3.47;1.20;;;;;;;;;;5023089;28;20072;-58
2023/05/29 04:34:38;;;;;;;9.25;2.05;;;;;;;;;;5022631;28;20150;-58
2023/05/29 04:37:07;;;;;;;2.75;1.70;;;;;;;;;;5022988;28;20049;-66
2023/05/29 04:39:36;;;;;;;1.90;1.55;;;;;;;;;;5019817;28;20045;-60
2023/05/29 04:42:05;;;;;;;4.13;2.03;;;;;;;;;;5021317;28;20042;-61
2023/05/29 04:44:34;;;;;;;3.50;2.13;;;;;;;;;;5020184;28;20045;-58
2023/05/29 04:47:03;;;;;;;6.80;2.22;;;;;;;;;;5018424;28;20141;-59
2023/05/29 04:49:32;;;;;;;6.28;2.13;;;;;;;;;;5026607;28;20103;-60
2023/05/29 04:52:00;;;;;;;4.57;1.98;;;;;;;;;;5022387;28;20464;-60
2023/05/29 04:54:29;;;;;;;6.38;2.03;;;;;;;;;;5017933;28;20050;-59
2023/05/29 04:56:58;;;;;;;2.65;1.77;;;;;;;;;;5018680;28;20573;-61
2023/05/29 04:59:27;;;;;;;4.07;1.95;;;;;;;;;;5019047;28;20429;-63
2023/05/29 05:01:55;;;;;;;3.17;1.55;;;;;;;;;;5019091;28;20095;-59
2023/05/29 05:04:24;;;;;;;4.85;2.08;;;;;;;;;;5015429;28;20127;-62
2023/05/29 05:06:53;;;;;;;4.68;1.92;;;;;;;;;;5019226;28;20051;-61
2023/05/29 05:09:21;;;;;;;4.18;1.63;;;;;;;;;;5017648;28;20077;-59
2023/05/29 05:11:49;;;;;;;2.95;1.60;;;;;;;;;;5015603;28;20108;-61
2023/05/29 05:14:19;;;;;;;3.45;1.58;;;;;;;;;;5017078;28;20045;-63
2023/05/29 05:16:47;;;;;;;3.58;1.52;;;;;;;;;;5016569;28;20053;-61
2023/05/29 05:19:16;;;;;;;1.50;0.90;;;;;;;;;;5015118;28;20543;-59
2023/05/29 05:21:44;;;;;;;3.67;1.90;;;;;;;;;;5016388;28;20478;-61
2023/05/29 05:24:13;;;;;;;2.25;1.17;;;;;;;;;;5018991;28;20073;-65
2023/05/29 05:26:41;;;;;;;2.92;1.20;;;;;;;;;;5034412;28;20147;-59
2023/05/29 05:29:09;;;;;;;4.57;1.60;;;;;;;;;;5037433;28;20461;-61
2023/05/29 05:31:39;;;;;;;4.28;1.63;;;;;;;;;;5039505;28;20138;-63
2023/05/29 05:34:08;;;;;;;2.70;1.33;;;;;;;;;;5038860;28;20052;-60
2023/05/29 05:36:36;;;;;;;4.32;1.80;;;;;;;;;;5038371;28;20152;-62
2023/05/29 05:39:05;;;;;;;5.45;1.83;;;;;;;;;;5036700;28;20487;-60
2023/05/29 05:41:33;;;;;;;5.18;1.40;;;;;;;;;;5039912;28;20057;-62
2023/05/29 05:44:01;;;;;;;6.97;2.08;;;;;;;;;;5035713;28;20061;-60
2023/05/29 05:46:30;;;;;;;3.42;1.23;;;;;;;;;;5042448;28;20551;-61
2023/05/29 05:49:00;;;;;;;2.60;1.42;;;;;;;;;;5039498;28;20045;-59
2023/05/29 05:51:29;;;;;;;2.20;1.35;;;;;;;;;;5037775;28;20056;-62
2023/05/29 05:53:57;;;;;;;6.38;1.50;;;;;;;;;;5037242;28;20041;-62
2023/05/29 05:56:26;;;;;;;1.63;1.10;;;;;;;;;;5041604;28;20060;-66
2023/05/29 05:58:54;;;;;;;8.32;1.83;;;;;;;;;;5036940;28;20126;-64
2023/05/29 06:01:23;;;;;;;3.70;1.42;;;;;;;;;;5035930;28;20682;-61
2023/05/29 06:03:51;;;;;;;8.45;1.58;;;;;;;;;;5038012;28;20053;-65
2023/05/29 06:06:21;;;;;;;7.43;1.95;;;;;;;;;;5024034;28;20457;-60
2023/05/29 06:08:49;;;;;;;4.18;1.70;;;;;;;;;;5016110;28;20506;-60
2023/05/29 06:11:18;;;;;;;3.78;1.40;;;;;;;;;;5021494;28;20095;-66
2023/05/29 06:13:46;;;;;;;2.25;1.08;;;;;;;;;;5016323;28;20627;-62
2023/05/29 06:16:15;;;;;;;5.30;1.67;;;;;;;;;;5017636;28;20413;-67
2023/05/29 06:18:44;;;;;;;3.13;1.60;;;;;;;;;;5021660;28;20358;-59
2023/05/29 06:21:13;;;;;;;3.92;1.58;;;;;;;;;;5020590;28;20123;-66
2023/05/29 06:23:43;;;;;;;2.97;1.48;;;;;;;;;;5021190;28;20053;-60
2023/05/29 06:26:12;;;;;;;3.78;1.02;;;;;;;;;;5021454;28;20709;-59
2023/05/29 06:28:40;;;;;;;5.53;1.92;;;;;;;;;;5025361;28;20103;-64
2023/05/29 06:31:09;;;;;;;2.88;1.17;;;;;;;;;;5025727;28;20492;-61
2023/05/29 06:33:38;;;;;;;4.72;1.52;;;;;;;;;;5026486;28;20050;-59
2023/05/29 06:36:06;;;;;;;3.75;1.55;;;;;;;;;;5026204;28;20133;-59
2023/05/29 06:38:35;;;;;;;4.55;1.48;;;;;;;;;;5023569;28;20081;-59
2023/05/29 06:41:05;;;;;;;6.15;1.88;;;;;;;;;;5023493;28;20081;-59
2023/05/29 06:43:33;;;;;;;4.38;1.52;;;;;;;;;;5022985;28;20110;-60
2023/05/29 06:46:02;;;;;;;3.80;1.77;;;;;;;;;;5027395;28;20075;-59
2023/05/29 06:48:33;;;;;;;4.82;1.73;;;;;;;;;;5023009;28;20095;-59
2023/05/29 06:51:08;;;;;;;6.30;1.95;;;;;;;;;;5029729;28;20054;-60
2023/05/29 06:53:36;;;;;;;4.72;1.75;;;;;;;;;;5030467;28;20050;-60
2023/05/29 06:56:07;;;;;;;3.95;1.50;;;;;;;;;;5036524;28;20084;-60
2023/05/29 06:58:35;;;;;;;5.53;2.35;;;;;;;;;;5042884;28;20057;-59
2023/05/29 07:01:04;;;;;;;2.75;1.02;;;;;;;;;;5041374;28;20456;-65
2023/05/29 07:03:36;;;;;;;4.75;1.85;;;;;;;;;;5042539;28;20521;-59
2023/05/29 07:06:06;;;;;;;3.42;1.50;;;;;;;;;;5042160;28;20099;-59
2023/05/29 07:08:34;;;;;;;3.22;1.58;;;;;;;;;;5039790;28;20064;-61
2023/05/29 07:11:03;;;;;;;3.47;1.63;;;;;;;;;;5042140;28;20138;-59
2023/05/29 07:13:32;;;;;;;4.75;1.33;;;;;;;;;;5037429;28;20125;-61
2023/05/29 07:16:01;;;;;;;4.55;1.50;;;;;;;;;;5025578;28;20049;-59
2023/05/29 07:18:44;;;;;;;2.05;1.00;;;;;;;;;;5017265;28;20053;-64
2023/05/29 07:21:12;;;;;;;4.00;1.80;;;;;;;;;;5026732;28;20049;-61
2023/05/29 07:23:42;;;;;;;5.30;1.67;;;;;;;;;;5023341;28;20493;-59
2023/05/29 07:26:10;;;;;;;4.00;1.52;;;;;;;;;;5023021;28;20049;-60
2023/05/29 07:28:40;;;;;;;4.03;1.45;;;;;;;;;;5025929;28;20050;-59
2023/05/29 07:31:08;;;;;;;4.75;1.98;;;;;;;;;;5025157;28;20046;-60
2023/05/29 07:33:36;;;;;;;4.28;1.25;;;;;;;;;;5025608;28;20092;-59
2023/05/29 07:36:05;;;;;;;4.85;1.58;;;;;;;;;;5028301;28;20054;-58
2023/05/29 07:38:33;;;;;;;3.92;1.55;;;;;;;;;;5022313;28;20045;-60
2023/05/29 07:41:02;;;;;;;4.20;1.77;;;;;;;;;;5026592;28;20140;-64
2023/05/29 07:43:30;;;;;;;6.40;2.25;;;;;;;;;;5019418;28;20433;-65
2023/05/29 07:46:00;;;;;;;3.45;1.27;;;;;;;;;;5025316;28;20053;-59
2023/05/29 07:48:29;;;;;;;3.90;1.60;;;;;;;;;;5024880;28;20080;-59
2023/05/29 07:50:57;;;;;;;5.13;1.55;;;;;;;;;;5022643;28;20042;-67
2023/05/29 07:53:25;;;;;;;4.85;1.58;;;;;;;;;;5024444;28;20045;-66
2023/05/29 07:55:54;;;;;;;6.80;1.67;;;;;;;;;;5021018;28;20053;-63
2023/05/29 07:58:23;;;;;;;1.75;1.25;;;;;;;;;;5023692;28;20045;-63
2023/05/29 08:00:51;;;;;;;5.57;2.05;;;;;;;;;;5024136;28;20095;-60
2023/05/29 08:03:21;;;;;;;6.75;2.13;;;;;;;;;;5026683;28;20049;-62
2023/05/29 08:05:49;;;;;;;2.05;1.38;;;;;;;;;;5017958;28;20063;-61
2023/05/29 08:08:18;;;;;;;3.92;1.52;;;;;;;;;;5024274;28;20072;-61
2023/05/29 08:10:46;;;;;;;3.95;1.85;;;;;;;;;;5019129;28;20060;-60
2023/05/29 08:13:14;;;;;;;4.13;1.50;;;;;;;;;;5016783;28;20132;-59
2023/05/29 08:15:43;;;;;;;5.68;1.80;;;;;;;;;;5021962;28;20107;-64
2023/05/29 08:18:11;;;;;;;9.10;1.77;;;;;;;;;;5023419;28;20478;-65
2023/05/29 08:20:42;;;;;;;2.65;1.40;;;;;;;;;;5022327;28;20058;-60
2023/05/29 08:23:11;;;;;;;5.47;1.80;;;;;;;;;;5021145;28;20056;-60
2023/05/29 08:25:39;;;;;;;4.72;1.70;;;;;;;;;;5022332;28;20127;-61
2023/05/29 08:28:08;;;;;;;4.70;1.73;;;;;;;;;;5026396;28;20456;-59
2023/05/29 08:30:36;;;;;;;4.75;1.88;;;;;;;;;;5018305;28;20096;-59
2023/05/29 08:33:05;;;;;;;3.55;1.70;;;;;;;;;;5028488;28;20085;-61
2023/05/29 08:35:34;;;;;;;4.90;1.88;;;;;;;;;;5016302;28;20054;-59
2023/05/29 08:38:03;;;;;;;7.55;2.35;;;;;;;;;;5013784;28;20400;-59
2023/05/29 08:40:32;;;;;;;4.05;1.83;;;;;;;;;;5022134;28;20136;-63
2023/05/29 08:43:04;;;;;;;5.15;1.38;;;;;;;;;;5023861;28;20045;-60
2023/05/29 08:45:34;;;;;;;6.45;1.85;;;;;;;;;;5021808;28;20509;-60
2023/05/29 08:48:03;;;;;;;4.00;2.00;;;;;;;;;;5018921;28;20410;-60
2023/05/29 08:50:31;;;;;;;3.58;1.45;;;;;;;;;;5021510;28;20406;-60
2023/05/29 08:53:00;;;;;;;4.13;1.90;;;;;;;;;;5019560;28;20562;-60
2023/05/29 08:55:30;;;;;;;2.60;1.45;;;;;;;;;;5023694;28;20062;-65
2023/05/29 08:57:58;;;;;;;4.40;1.60;;;;;;;;;;5016739;28;20069;-60
2023/05/29 09:00:29;;;;;;;5.55;1.63;;;;;;;;;;5022269;28;20375;-60
2023/05/29 09:02:59;;;;;;;2.83;1.30;;;;;;;;;;5019982;28;20041;-59
2023/05/29 09:05:27;;;;;;;5.18;2.10;;;;;;;;;;5018432;28;20054;-62
2023/05/29 09:07:57;;;;;;;3.15;1.50;;;;;;;;;;5018031;28;20049;-66
2023/05/29 09:10:26;;;;;;;2.85;1.33;;;;;;;;;;5024008;28;20049;-66
2023/05/29 09:12:55;;;;;;;2.17;1.40;;;;;;;;;;5023142;28;20494;-60
2023/05/29 09:15:25;;;;;;;2.60;1.45;;;;;;;;;;5021896;28;20492;-59
2023/05/29 09:17:53;;;;;;;6.63;2.13;;;;;;;;;;5023944;28;20041;-59
2023/05/29 09:20:23;;;;;;;2.88;1.20;;;;;;;;;;5019184;28;20108;-59
2023/05/29 09:22:56;;;;;;;4.60;1.58;;;;;;;;;;5024758;28;20442;-61
2023/05/29 09:25:26;;;;;;;3.88;1.50;;;;;;;;;;5016365;28;20101;-61
2023/05/29 09:27:58;;;;;;;2.85;1.30;;;;;;;;;;5020367;28;20058;-59
2023/05/29 09:30:33;;;;;;;3.13;1.30;;;;;;;;;;5023852;28;20131;-59
2023/05/29 09:33:01;;;;;;;4.55;1.73;;;;;;;;;;5023186;28;20100;-60
2023/05/29 09:35:34;;;;;;;3.00;1.60;;;;;;;;;;5028871;28;20041;-61
2023/05/29 09:38:02;;;;;;;7.82;1.67;;;;;;;;;;5042941;28;20390;-60
2023/05/29 09:40:32;;;;;;;3.85;1.45;;;;;;;;;;5037672;28;20100;-63
2023/05/29 09:43:07;;;;;;;3.17;1.60;;;;;;;;;;5037945;28;20090;-61
2023/05/29 09:45:39;;;;;;;2.75;1.40;;;;;;;;;;5035739;28;20122;-61
2023/05/29 09:48:08;;;;;;;3.47;1.25;;;;;;;;;;5035492;28;20543;-60
2023/05/29 09:50:37;;;;;;;4.22;1.58;;;;;;;;;;5034739;28;20049;-60
2023/05/29 09:53:17;;;;;;;2.35;1.27;;;;;;;;;;5038497;28;20037;-62
2023/05/29 09:55:46;;;;;;;3.60;1.55;;;;;;;;;;5029806;28;20126;-62
2023/05/29 09:58:17;;;;;;;6.30;1.58;;;;;;;;;;5019181;28;20053;-59
2023/05/29 10:00:45;;;;;;;2.03;1.10;;;;;;;;;;5013174;28;20054;-63
2023/05/29 10:03:14;;;;;;;3.50;1.30;;;;;;;;;;5020109;28;20487;-62
2023/05/29 10:05:43;;;;;;;2.95;1.45;;;;;;;;;;5027310;28;20045;-60
2023/05/29 10:08:13;;;;;;;2.90;1.73;;;;;;;;;;5034998;28;20053;-63
2023/05/29 10:10:42;;;;;;;3.92;1.80;;;;;;;;;;5037631;28;20094;-60
2023/05/29 10:13:13;;;;;;;2.17;1.15;;;;;;;;;;5038002;28;21697;-65
2023/05/29 10:15:46;;;;;;;4.18;1.48;;;;;;;;;;5043784;28;20395;-59
2023/05/29 10:18:15;;;;;;;3.83;1.50;;;;;;;;;;5045567;28;20103;-63
2023/05/29 10:20:45;;;;;;;2.20;1.00;;;;;;;;;;5041036;28;20053;-61
2023/05/29 10:23:14;;;;;;;5.85;1.95;;;;;;;;;;5041074;28;20057;-60
2023/05/29 10:25:44;;;;;;;3.80;1.30;;;;;;;;;;5038724;28;20130;-60
2023/05/29 10:28:12;;;;;;;2.67;1.20;;;;;;;;;;5033958;28;20103;-61
2023/05/29 10:30:43;;;;;;;6.72;1.95;;;;;;;;;;5036713;28;20045;-61
2023/05/29 10:33:42;;;;;;;2.17;1.00;;;;;;;;;;5040041;28;20541;-60
2023/05/29 10:36:14;;;;;;;2.22;1.30;;;;;;;;;;5039529;28;20049;-60
2023/05/29 10:38:43;;;;;;;2.03;1.25;;;;;;;;;;5032439;28;20048;-61
2023/05/29 10:41:34;;;;;;;2.15;1.30;;;;;;;;;;5035296;28;20163;-62
2023/05/29 10:44:02;;;;;;;4.80;1.90;;;;;;;;;;5042372;28;20501;-61
2023/05/29 10:46:47;;;;;;;4.57;1.88;;;;;;;;;;5037529;28;20052;-61
2023/05/29 10:49:18;;;;;;;2.67;1.27;;;;;;;;;;5021324;28;20970;-63
2023/05/29 10:51:48;;;;;;;2.10;1.77;;;;;;;;;;5028624;28;20102;-62
2023/05/29 10:54:16;;;;;;;3.45;1.42;;;;;;;;;;5039967;28;20048;-60
2023/05/29 10:56:46;;;;;;;2.95;1.33;;;;;;;;;;5037943;28;20486;-61
2023/05/29 10:59:14;;;;;;;2.65;1.30;;;;;;;;;;5038832;28;20643;-67
2023/05/29 11:01:43;;;;;;;2.03;1.15;;;;;;;;;;5035494;28;22000;-66
2023/05/29 11:04:31;;;;;;;5.30;1.73;;;;;;;;;;5040907;28;20082;-61
2023/05/29 11:07:00;;;;;;;2.45;1.00;;;;;;;;;;5034840;28;20132;-62
2023/05/29 11:09:30;;;;;;;2.53;1.35;;;;;;;;;;5039597;28;20413;-67
2023/05/29 11:12:14;;;;;;;2.38;1.08;;;;;;;;;;5041380;28;20037;-61
2023/05/29 11:14:46;;;;;;;3.53;1.45;;;;;;;;;;5042499;28;20041;-64
2023/05/29 11:17:32;;;;;;;3.63;1.33;;;;;;;;;;5037364;28;20045;-64
2023/05/29 11:20:07;;;;;;;2.75;1.42;;;;;;;;;;5041104;28;20128;-61
2023/05/29 11:22:50;;;;;;;1.38;0.90;;;;;;;;;;5040886;28;20055;-65
2023/05/29 11:25:18;;;;;;;5.57;1.52;;;;;;;;;;5037741;28;20132;-62
2023/05/29 11:27:47;;;;;;;2.80;1.25;;;;;;;;;;5041614;28;20402;-64
2023/05/29 11:30:15;;;;;;;5.18;1.60;;;;;;;;;;5041698;28;20049;-62
2023/05/29 11:32:46;;;;;;;3.28;1.52;;;;;;;;;;5045404;28;20313;-63
2023/05/29 11:35:16;;;;;;;3.80;1.38;;;;;;;;;;5038767;28;20056;-61
2023/05/29 11:37:47;;;;;;;3.25;1.50;;;;;;;;;;5035499;28;20588;-63
2023/05/29 11:40:16;;;;;;;4.30;1.00;;;;;;;;;;5044301;28;20122;-60
2023/05/29 11:42:45;;;;;;;2.20;1.20;;;;;;;;;;5035745;28;20060;-62
2023/05/29 11:45:14;;;;;;;2.40;1.13;;;;;;;;;;5037555;28;20052;-61
2023/05/29 11:47:53;;;;;;;3.50;1.40;;;;;;;;;;5042281;28;20150;-60
2023/05/29 11:50:23;;;;;;;3.63;1.20;;;;;;;;;;5042534;28;20049;-61
2023/05/29 11:52:52;;;;;;;2.10;1.17;;;;;;;;;;5041886;28;20419;-62
2023/05/29 11:55:20;;;;;;;2.03;1.50;;;;;;;;;;5043011;28;20045;-63
2023/05/29 11:57:49;;;;;;;4.88;1.80;;;;;;;;;;5042345;28;20052;-62
2023/05/29 12:00:18;;;;;;;4.20;1.38;;;;;;;;;;5044873;28;20052;-61
2023/05/29 12:02:47;;;;;;;2.88;1.33;;;;;;;;;;5044678;28;20057;-61
2023/05/29 12:05:19;;;;;;;2.92;1.40;;;;;;;;;;5040653;28;20059;-61
2023/05/29 12:07:53;;;;;;;2.72;1.40;;;;;;;;;;5035579;28;20128;-62
2023/05/29 12:10:22;;;;;;;3.95;1.50;;;;;;;;;;5033219;28;20473;-63
2023/05/29 12:12:52;;;;;;;5.95;1.40;;;;;;;;;;5034778;28;20045;-63
2023/05/29 12:15:21;;;;;;;2.20;1.23;;;;;;;;;;5031995;28;20049;-64
2023/05/29 12:17:50;;;;;;;1.98;1.00;;;;;;;;;;5038246;28;20095;-69
2023/05/29 12:20:20;;;;;;;2.65;1.35;;;;;;;;;;5034283;28;20052;-61
2023/05/29 12:22:48;;;;;;;2.35;1.30;;;;;;;;;;5038131;28;20363;-63
2023/05/29 12:25:19;;;;;;;2.00;1.20;;;;;;;;;;5041377;28;20662;-63
2023/05/29 12:27:48;;;;;;;2.88;1.20;;;;;;;;;;5034028;28;20098;-66
2023/05/29 12:30:21;;;;;;;1.80;0.98;;;;;;;;;;5033255;28;20195;-62
2023/05/29 12:33:00;;;;;;;2.80;1.42;;;;;;;;;;5037235;28;20041;-65
2023/05/29 12:35:30;;;;;;;1.75;1.15;;;;;;;;;;5038907;28;20056;-61
2023/05/29 12:37:59;;;;;;;3.08;1.20;;;;;;;;;;5043037;28;20088;-61
2023/05/29 12:40:30;;;;;;;6.95;1.63;;;;;;;;;;5040640;28;20053;-60
2023/05/29 12:43:00;;;;;;;1.17;1.05;;;;;;;;;;5036227;28;20041;-61
2023/05/29 12:45:30;;;;;;;1.45;0.80;;;;;;;;;;5044003;28;20048;-61
2023/05/29 12:48:01;;;;;;;1.70;1.17;;;;;;;;;;5040181;28;20072;-68
2023/05/29 12:50:30;;;;;;;6.43;1.15;;;;;;;;;;5043363;28;20053;-68
2023/05/29 12:52:59;;;;;;;2.20;1.17;;;;;;;;;;5038516;28;20098;-61
2023/05/29 12:55:30;;;;;;;3.58;1.23;;;;;;;;;;5038650;28;22591;-62
2023/05/29 12:57:58;;;;;;;5.82;1.35;;;;;;;;;;5038391;28;20045;-62
2023/05/29 13:00:27;;;;;;;2.20;0.93;;;;;;;;;;5038007;28;20053;-60
2023/05/29 13:02:55;;;;;;;1.50;0.93;;;;;;;;;;5044884;28;20509;-62
2023/05/29 13:05:24;;;;;;;5.18;0.98;;;;;;;;;;5041096;28;20421;-63
2023/05/29 13:07:53;;;;;;;2.42;1.15;;;;;;;;;;5041055;28;20091;-60
2023/05/29 13:10:21;;;;;;;1.50;0.80;;;;;;;;;;5036773;28;20068;-62
2023/05/29 13:12:53;;;;;;;4.00;1.20;;;;;;;;;;5032874;28;20501;-61
2023/05/29 13:15:22;;;;;;;2.80;1.17;;;;;;;;;;5037963;28;20076;-62
2023/05/29 13:17:52;;;;;;;2.53;1.15;;;;;;;;;;5042365;28;20041;-61
2023/05/29 13:20:21;;;;;;;3.30;1.40;;;;;;;;;;5044421;28;20040;-60
2023/05/29 13:22:50;;;;;;;3.35;1.35;;;;;;;;;;5040288;28;20521;-64
2023/05/29 13:25:20;;;;;;;4.68;1.20;;;;;;;;;;5033508;28;20051;-61
2023/05/29 13:27:49;;;;;;;1.95;1.17;;;;;;;;;;5044090;28;20077;-60
2023/05/29 13:30:19;;;;;;;4.32;1.33;;;;;;;;;;5036174;28;20098;-64
2023/05/29 13:32:47;;;;;;;1.40;1.17;;;;;;;;;;5036741;28;20461;-62
2023/05/29 13:35:16;;;;;;;2.58;1.30;;;;;;;;;;5041697;28;20049;-61
2023/05/29 13:37:45;;;;;;;2.45;1.02;;;;;;;;;;5040614;28;20045;-60
2023/05/29 13:40:14;;;;;;;2.45;1.15;;;;;;;;;;5041923;28;20843;-63
2023/05/29 13:42:43;;;;;;;2.33;1.10;;;;;;;;;;5035129;28;20065;-63
2023/05/29 13:45:12;;;;;;;3.45;0.95;;;;;;;;;;5039058;28;20053;-61
2023/05/29 13:47:41;;;;;;;2.67;1.10;;;;;;;;;;5037837;28;20095;-62
2023/05/29 13:50:10;;;;;;;2.80;1.40;;;;;;;;;;5038330;28;20041;-64
2023/05/29 13:52:39;;;;;;;2.60;1.20;;;;;;;;;;5034001;28;20048;-64
2023/05/29 13:55:09;;;;;;;4.80;1.40;;;;;;;;;;5040767;28;20103;-60
2023/05/29 13:57:39;;;;;;;2.92;1.35;;;;;;;;;;5036859;28;20056;-60
2023/05/29 14:00:09;;;;;;;6.43;1.27;;;;;;;;;;5037861;28;20509;-64
2023/05/29 14:02:37;;;;;;;1.67;0.95;;;;;;;;;;5041963;28;20539;-62
2023/05/29 14:05:09;;;;;;;2.22;1.70;;;;;;;;;;5035444;28;20502;-61
2023/05/29 14:07:37;;;;;;;1.92;1.00;;;;;;;;;;5034266;28;20049;-63
2023/05/29 14:10:06;;;;;;;1.67;1.20;;;;;;;;;;5040654;28;20085;-61
2023/05/29 14:12:37;;;;;;;2.22;1.48;;;;;;;;;;5045092;28;20482;-61
2023/05/29 14:15:06;;;;;;;2.92;1.20;;;;;;;;;;5042143;28;20452;-61
2023/05/29 14:17:34;;;;;;;4.35;1.48;;;;;;;;;;5045293;28;20053;-62
2023/05/29 14:20:04;;;;;;;1.77;0.98;;;;;;;;;;5040907;28;20048;-61
2023/05/29 14:22:34;;;;;;;1.60;1.00;;;;;;;;;;5042236;28;20049;-61
2023/05/29 14:25:03;;;;;;;1.45;0.90;;;;;;;;;;5041769;28;20060;-64
2023/05/29 14:27:32;;;;;;;2.20;1.30;;;;;;;;;;5045211;28;20045;-63
2023/05/29 14:30:00;;;;;;;1.85;1.00;;;;;;;;;;5037180;28;20049;-61
2023/05/29 14:32:29;;;;;;;2.35;1.17;;;;;;;;;;5039320;28;20132;-60
2023/05/29 14:34:58;;;;;;;1.80;1.23;;;;;;;;;;5037960;28;20059;-61
2023/05/29 14:37:26;;;;;;;2.65;1.25;;;;;;;;;;5036298;28;20587;-64
2023/05/29 14:39:56;;;;;;;1.75;1.23;;;;;;;;;;5039167;28;20461;-66
2023/05/29 14:42:24;;;;;;;1.17;0.88;;;;;;;;;;5037282;28;20524;-61
2023/05/29 14:44:53;;;;;;;2.17;1.15;;;;;;;;;;5035101;28;20045;-65
2023/05/29 14:47:21;;;;;;;1.65;0.90;;;;;;;;;;5037949;28;20103;-61
2023/05/29 14:49:50;;;;;;;1.95;0.90;;;;;;;;;;5036676;28;20081;-61
2023/05/29 14:52:18;;;;;;;3.30;1.23;;;;;;;;;;5038567;28;20458;-63
2023/05/29 14:54:46;;;;;;;2.90;1.38;;;;;;;;;;5034207;28;20449;-64
2023/05/29 14:57:16;;;;;;;3.38;1.45;;;;;;;;;;5035229;28;20476;-61